createdAt,value
2023-03-06T00:01:05.862Z,35.42
2023-03-06T00:03:33.821Z,35.23
2023-03-06T00:06:00.834Z,35.63
2023-03-06T00:08:27.877Z,35.72
2023-03-06T00:10:54.584Z,35.79
2023-03-06T00:13:21.085Z,35.50
2023-03-06T00:15:48.714Z,35.64
2023-03-06T00:18:15.411Z,35.39
2023-03-06T00:20:42.787Z,35.61
2023-03-06T00:23:09.667Z,35.59
2023-03-06T00:25:38.822Z,35.23
2023-03-06T00:28:06.173Z,35.49
2023-03-06T00:30:32.881Z,35.29
2023-03-06T00:32:59.386Z,35.55
2023-03-06T00:35:26.081Z,35.49
2023-03-06T00:37:52.671Z,35.10
2023-03-06T00:40:19.274Z,35.62
2023-03-06T00:42:46.940Z,35.44
2023-03-06T00:45:13.631Z,35.33
2023-03-06T00:47:40.303Z,35.42
2023-03-06T00:50:07.532Z,35.18
2023-03-06T00:52:34.112Z,35.44
2023-03-06T00:55:00.796Z,35.21
2023-03-06T00:57:27.383Z,34.99
2023-03-06T00:59:53.882Z,35.27
2023-03-06T01:02:21.070Z,35.33
2023-03-06T01:04:50.518Z,35.59
2023-03-06T01:07:16.973Z,35.13
2023-03-06T01:09:43.940Z,35.31
2023-03-06T01:12:10.422Z,35.53
2023-03-06T01:14:36.952Z,34.97
2023-03-06T01:17:03.443Z,35.51
2023-03-06T01:19:30.234Z,34.97
2023-03-06T01:21:56.738Z,35.58
2023-03-06T01:24:25.639Z,35.03
2023-03-06T01:26:54.488Z,35.41
2023-03-06T01:29:21.011Z,34.96
2023-03-06T01:31:47.631Z,35.23
2023-03-06T01:34:14.277Z,35.21
2023-03-06T01:36:40.792Z,35.26
2023-03-06T01:39:07.287Z,35.30
2023-03-06T01:41:33.770Z,35.37
2023-03-06T01:44:00.340Z,35.59
2023-03-06T01:46:32.210Z,35.15
2023-03-06T01:48:58.675Z,35.47
2023-03-06T01:51:26.046Z,35.21
2023-03-06T01:53:52.666Z,35.22
2023-03-06T01:56:19.122Z,35.36
2023-03-06T01:58:47.475Z,35.26
2023-03-06T02:01:14.619Z,35.49
2023-03-06T02:03:41.526Z,35.01
2023-03-06T02:06:09.654Z,35.33
2023-03-06T02:08:36.165Z,35.20
2023-03-06T02:11:08.492Z,35.08
2023-03-06T02:13:35.764Z,34.93
2023-03-06T02:16:02.281Z,35.28
2023-03-06T02:18:29.120Z,34.88
2023-03-06T02:20:59.825Z,35.08
2023-03-06T02:23:26.614Z,35.45
2023-03-06T02:25:53.095Z,35.36
2023-03-06T02:28:20.795Z,35.29
2023-03-06T02:30:48.415Z,35.52
2023-03-06T02:33:16.028Z,34.93
2023-03-06T02:35:55.800Z,35.44
2023-03-06T02:38:24.463Z,34.89
2023-03-06T02:40:51.964Z,35.47
2023-03-06T02:43:21.552Z,34.89
2023-03-06T02:45:49.099Z,34.99
2023-03-06T02:48:15.978Z,35.28
2023-03-06T02:50:42.627Z,34.99
2023-03-06T02:53:09.488Z,35.42
2023-03-06T02:55:36.096Z,35.40
2023-03-06T02:58:02.933Z,35.00
2023-03-06T03:00:30.067Z,35.19
2023-03-06T03:02:56.628Z,35.08
2023-03-06T03:05:23.371Z,34.79
2023-03-06T03:07:57.233Z,34.92
2023-03-06T03:10:24.469Z,34.97
2023-03-06T03:12:51.253Z,35.30
2023-03-06T03:15:17.852Z,35.20
2023-03-06T03:17:44.545Z,34.88
2023-03-06T03:20:12.595Z,34.72
2023-03-06T03:22:39.204Z,34.72
2023-03-06T03:25:06.305Z,35.14
2023-03-06T03:27:32.814Z,34.79
2023-03-06T03:29:59.767Z,35.08
2023-03-06T03:32:28.503Z,35.05
2023-03-06T03:34:57.292Z,35.25
2023-03-06T03:37:25.780Z,34.87
2023-03-06T03:39:53.771Z,34.73
2023-03-06T03:42:20.245Z,34.87
2023-03-06T03:44:46.738Z,35.23
2023-03-06T03:47:13.251Z,34.96
2023-03-06T03:49:40.868Z,35.19
2023-03-06T03:52:08.193Z,35.23
2023-03-06T03:54:36.114Z,35.11
2023-03-06T03:57:02.571Z,35.14
2023-03-06T03:59:33.382Z,34.62
2023-03-06T04:02:22.885Z,34.74
2023-03-06T04:05:05.019Z,34.97
2023-03-06T04:07:32.476Z,34.81
2023-03-06T04:09:59.289Z,34.78
2023-03-06T04:12:27.606Z,34.97
2023-03-06T04:14:54.290Z,34.62
2023-03-06T04:17:22.160Z,35.26
2023-03-06T04:19:49.324Z,34.72
2023-03-06T04:22:16.758Z,35.07
2023-03-06T04:24:43.356Z,34.94
2023-03-06T04:27:10.030Z,34.77
2023-03-06T04:29:37.600Z,35.26
2023-03-06T04:32:04.595Z,35.21
2023-03-06T04:34:31.452Z,35.87
2023-03-06T04:37:18.431Z,35.57
2023-03-06T04:40:04.289Z,35.35
2023-03-06T04:42:49.261Z,35.42
2023-03-06T04:45:34.590Z,35.26
2023-03-06T04:48:20.043Z,34.64
2023-03-06T04:51:04.966Z,34.98
2023-03-06T04:53:49.931Z,34.47
2023-03-06T04:56:34.703Z,34.84
2023-03-06T04:59:19.983Z,34.43
2023-03-06T05:02:05.278Z,34.74
2023-03-06T05:04:50.593Z,34.48
2023-03-06T05:07:35.450Z,34.66
2023-03-06T05:10:20.616Z,34.69
2023-03-06T05:13:05.658Z,35.00
2023-03-06T05:15:50.586Z,34.71
2023-03-06T05:18:35.894Z,34.85
2023-03-06T05:21:20.840Z,35.00
2023-03-06T05:24:05.814Z,35.09
2023-03-06T05:26:51.203Z,35.11
2023-03-06T05:29:35.968Z,35.00
2023-03-06T05:32:21.842Z,34.68
2023-03-06T05:35:07.225Z,34.78
2023-03-06T05:37:52.362Z,35.16
2023-03-06T05:40:39.495Z,35.02
2023-03-06T05:43:24.857Z,34.89
2023-03-06T05:46:10.604Z,35.10
2023-03-06T05:48:57.374Z,34.91
2023-03-06T05:51:42.428Z,35.06
2023-03-06T05:54:27.717Z,35.06
2023-03-06T05:57:12.911Z,35.25
2023-03-06T05:59:57.946Z,35.14
2023-03-06T06:02:43.521Z,35.29
2023-03-06T06:05:28.658Z,35.33
2023-03-06T06:08:13.565Z,35.09
2023-03-06T06:10:58.452Z,35.42
2023-03-06T06:13:43.904Z,35.43
2023-03-06T06:16:29.169Z,35.38
2023-03-06T06:19:18.569Z,35.39
2023-03-06T06:22:03.923Z,35.11
2023-03-06T06:24:48.685Z,35.28
2023-03-06T06:27:34.072Z,35.58
2023-03-06T06:30:18.935Z,35.26
2023-03-06T06:33:03.741Z,35.64
2023-03-06T06:35:49.032Z,35.58
2023-03-06T06:38:34.673Z,35.62
2023-03-06T06:41:39.269Z,35.18
2023-03-06T06:44:24.367Z,35.64
2023-03-06T06:47:25.743Z,35.36
2023-03-06T06:50:12.390Z,35.67
2023-03-06T06:52:57.155Z,35.42
2023-03-06T06:55:42.943Z,35.33
2023-03-06T06:58:28.114Z,35.20
2023-03-06T07:01:13.614Z,35.29
2023-03-06T07:03:58.938Z,35.01
2023-03-06T07:06:44.159Z,35.01
2023-03-06T07:09:30.794Z,35.11
2023-03-06T07:12:16.056Z,34.97
2023-03-06T07:15:01.172Z,35.43
2023-03-06T07:17:48.933Z,35.47
2023-03-06T07:20:34.812Z,35.22
2023-03-06T07:23:20.099Z,35.05
2023-03-06T07:26:05.439Z,35.44
2023-03-06T07:28:53.151Z,34.99
2023-03-06T07:31:38.797Z,35.17
2023-03-06T07:34:23.923Z,35.47
2023-03-06T07:37:08.664Z,35.13
2023-03-06T07:39:53.840Z,34.75
2023-03-06T07:42:39.269Z,33.32
2023-03-06T07:45:29.380Z,31.99
2023-03-06T07:48:14.746Z,31.21
2023-03-06T07:51:01.229Z,31.61
2023-03-06T07:53:46.334Z,31.36
2023-03-06T07:56:31.338Z,32.01
2023-03-06T07:59:16.178Z,32.16
2023-03-06T08:02:01.564Z,32.52
2023-03-06T08:04:51.726Z,33.37
2023-03-06T08:07:36.818Z,33.70
2023-03-06T08:10:21.589Z,33.47
2023-03-06T08:13:06.553Z,33.52
2023-03-06T08:15:51.476Z,33.13
2023-03-06T08:18:38.318Z,33.28
2023-03-06T08:21:24.076Z,33.51
2023-03-06T08:24:09.164Z,33.46
2023-03-06T08:26:53.930Z,33.33
2023-03-06T08:29:39.101Z,33.16
2023-03-06T08:32:23.954Z,33.05
2023-03-06T08:35:09.258Z,33.30
2023-03-06T08:37:54.044Z,33.43
2023-03-06T08:40:38.894Z,33.08
2023-03-06T08:43:23.528Z,33.25
2023-03-06T08:46:09.692Z,33.25
2023-03-06T08:48:54.416Z,33.21
2023-03-06T08:51:39.276Z,33.13
2023-03-06T08:54:24.262Z,33.24
2023-03-06T08:57:09.213Z,33.21
2023-03-06T08:59:54.700Z,33.28
2023-03-06T09:02:40.011Z,33.17
2023-03-06T09:05:25.351Z,33.30
2023-03-06T09:08:10.426Z,33.18
2023-03-06T09:10:55.563Z,33.09
2023-03-06T09:13:41.652Z,33.10
2023-03-06T09:16:26.920Z,33.00
2023-03-06T09:19:12.082Z,33.00
2023-03-06T09:21:57.884Z,33.19
2023-03-06T09:24:42.793Z,33.02
2023-03-06T09:27:30.471Z,33.05
2023-03-06T09:30:16.389Z,32.98
2023-03-06T09:33:01.361Z,32.75
2023-03-06T09:35:54.178Z,33.05
2023-03-06T09:38:39.376Z,32.92
2023-03-06T09:41:34.452Z,33.06
2023-03-06T09:44:20.542Z,32.79
2023-03-06T09:47:20.998Z,32.76
2023-03-06T09:50:09.858Z,32.83
2023-03-06T09:53:16.593Z,32.81
2023-03-06T09:56:18.174Z,32.77
2023-03-06T09:59:13.553Z,32.73
2023-03-06T10:02:03.528Z,32.78
2023-03-06T10:04:50.811Z,32.59
2023-03-06T10:07:42.322Z,32.68
2023-03-06T10:10:28.904Z,32.37
2023-03-06T10:13:32.759Z,32.45
2023-03-06T10:16:31.010Z,32.55
2023-03-06T10:19:16.896Z,32.35
2023-03-06T10:22:02.163Z,32.25
2023-03-06T10:25:11.891Z,32.34
2023-03-06T10:28:03.675Z,32.40
2023-03-06T10:30:48.587Z,32.18
2023-03-06T10:33:40.069Z,32.44
2023-03-06T10:36:27.200Z,32.63
2023-03-06T10:39:17.024Z,32.33
2023-03-06T10:42:02.073Z,32.65
2023-03-06T10:44:47.460Z,32.21
2023-03-06T10:47:35.324Z,32.36
2023-03-06T10:50:25.414Z,32.06
2023-03-06T10:53:19.666Z,31.93
2023-03-06T10:56:05.066Z,31.91
2023-03-06T10:58:53.228Z,31.42
2023-03-06T11:01:38.558Z,31.39
2023-03-06T11:04:30.001Z,31.49
2023-03-06T11:07:15.324Z,31.75
2023-03-06T11:10:05.549Z,31.89
2023-03-06T11:13:07.586Z,32.06
2023-03-06T11:15:57.600Z,32.21
2023-03-06T11:18:43.235Z,32.27
2023-03-06T11:21:30.344Z,32.25
2023-03-06T11:24:17.503Z,32.27
2023-03-06T11:27:03.634Z,32.58
2023-03-06T11:29:49.513Z,32.49
2023-03-06T11:32:42.316Z,32.38
2023-03-06T11:35:47.631Z,32.55
2023-03-06T11:38:39.174Z,32.75
2023-03-06T11:41:35.773Z,32.77
2023-03-06T11:44:47.315Z,32.46
2023-03-06T11:47:33.653Z,32.56
2023-03-06T11:50:32.120Z,32.71
2023-03-06T11:53:20.731Z,32.64
2023-03-06T11:56:24.119Z,32.84
2023-03-06T11:59:29.580Z,32.93
2023-03-06T12:02:14.402Z,32.85
2023-03-06T12:05:17.683Z,33.14
2023-03-06T12:08:13.483Z,33.20
2023-03-06T12:11:02.122Z,33.30
2023-03-06T12:16:43.452Z,33.31
2023-03-06T12:19:30.772Z,33.33
2023-03-06T12:22:39.150Z,33.53
2023-03-06T12:25:59.532Z,33.32
2023-03-06T12:29:06.584Z,33.31
2023-03-06T12:32:03.580Z,33.51
2023-03-06T12:34:51.696Z,33.48
2023-03-06T12:37:47.510Z,33.66
2023-03-06T12:40:36.221Z,33.53
2023-03-06T12:43:26.971Z,33.61
2023-03-06T12:46:19.134Z,33.70
2023-03-06T12:49:05.956Z,33.70
2023-03-06T12:51:51.386Z,33.74
2023-03-06T12:54:37.745Z,33.54
2023-03-06T12:57:23.259Z,33.78
2023-03-06T13:00:08.470Z,33.63
2023-03-06T13:03:02.749Z,33.73
2023-03-06T13:06:00.000Z,33.77
2023-03-06T13:08:45.850Z,34.00
2023-03-06T13:11:49.826Z,33.96
2023-03-06T13:14:54.652Z,34.18
2023-03-06T13:17:40.916Z,34.12
2023-03-06T13:20:35.005Z,34.24
2023-03-06T13:23:29.438Z,34.28
2023-03-06T13:26:46.689Z,34.03
2023-03-06T13:29:37.864Z,34.24
2023-03-06T13:32:28.977Z,34.11
2023-03-06T13:35:32.593Z,34.45
2023-03-06T13:38:29.678Z,34.26
2023-03-06T13:41:20.712Z,34.34
2023-03-06T13:44:26.306Z,34.42
2023-03-06T13:47:19.701Z,34.73
2023-03-06T13:50:18.471Z,34.48
2023-03-06T13:53:06.725Z,34.43
2023-03-06T13:56:04.249Z,34.44
2023-03-06T13:59:07.840Z,34.42
2023-03-06T14:01:56.615Z,34.02
2023-03-06T14:04:46.845Z,34.29
2023-03-06T14:07:40.428Z,33.78
2023-03-06T14:10:25.865Z,34.07
2023-03-06T14:13:15.275Z,33.98
2023-03-06T14:16:00.721Z,33.85
2023-03-06T14:18:47.404Z,33.81
2023-03-06T14:21:37.030Z,34.33
2023-03-06T14:24:27.412Z,34.45
2023-03-06T14:27:21.192Z,34.15
2023-03-06T14:30:06.888Z,34.43
2023-03-06T14:32:53.714Z,34.33
2023-03-06T14:35:39.073Z,34.36
2023-03-06T14:38:24.403Z,34.31
2023-03-06T14:41:11.736Z,34.18
2023-03-06T14:44:21.525Z,33.99
2023-03-06T14:47:25.857Z,33.84
2023-03-06T14:50:21.399Z,32.56
2023-03-06T14:53:14.016Z,30.14
2023-03-06T14:56:00.516Z,30.08
2023-03-06T14:58:51.052Z,31.43
2023-03-06T15:01:37.221Z,31.77
2023-03-06T15:04:22.151Z,31.37
2023-03-06T15:07:08.292Z,32.18
2023-03-06T15:09:53.818Z,32.41
2023-03-06T15:12:39.368Z,32.78
2023-03-06T15:15:31.371Z,32.42
2023-03-06T15:18:28.539Z,32.64
2023-03-06T15:21:18.800Z,32.65
2023-03-06T15:24:19.341Z,33.05
2023-03-06T15:27:05.793Z,32.96
2023-03-06T15:29:51.038Z,32.82
2023-03-06T15:32:42.330Z,32.99
2023-03-06T15:35:27.490Z,33.25
2023-03-06T15:38:26.672Z,33.14
2023-03-06T15:41:26.840Z,33.08
2023-03-06T15:44:13.130Z,33.32
2023-03-06T15:47:08.539Z,33.12
2023-03-06T15:49:54.432Z,33.27
2023-03-06T15:52:39.229Z,33.30
2023-03-06T15:55:28.089Z,33.42
2023-03-06T15:58:14.836Z,33.25
2023-03-06T16:01:00.089Z,33.31
2023-03-06T16:03:45.413Z,33.62
2023-03-06T16:06:30.354Z,33.27
2023-03-06T16:09:15.689Z,33.31
2023-03-06T16:12:00.923Z,32.96
2023-03-06T16:14:47.606Z,33.20
2023-03-06T16:17:32.657Z,33.26
2023-03-06T16:20:18.697Z,33.50
2023-03-06T16:23:07.880Z,33.49
2023-03-06T16:25:52.597Z,33.80
2023-03-06T16:28:41.219Z,33.25
2023-03-06T16:31:26.472Z,33.48
2023-03-06T16:34:11.790Z,33.70
2023-03-06T16:36:56.734Z,33.64
2023-03-06T16:39:42.239Z,33.87
2023-03-06T16:42:27.612Z,33.49
2023-03-06T16:45:12.979Z,34.13
2023-03-06T16:47:59.420Z,33.82
2023-03-06T16:50:45.516Z,33.96
2023-03-06T16:53:30.499Z,34.10
2023-03-06T16:56:16.053Z,33.74
2023-03-06T16:59:01.223Z,33.79
2023-03-06T17:01:45.985Z,34.32
2023-03-06T17:04:31.443Z,33.68
2023-03-06T17:07:16.691Z,33.70
2023-03-06T17:10:01.767Z,34.19
2023-03-06T17:12:46.762Z,33.76
2023-03-06T17:15:32.294Z,34.17
2023-03-06T17:18:17.582Z,34.24
2023-03-06T17:21:02.336Z,34.32
2023-03-06T17:23:47.467Z,34.22
2023-03-06T17:26:32.731Z,33.93
2023-03-06T17:29:17.885Z,34.07
2023-03-06T17:32:03.121Z,34.20
2023-03-06T17:34:48.239Z,33.98
2023-03-06T17:37:33.225Z,34.00
2023-03-06T17:40:18.958Z,33.98
2023-03-06T17:43:03.893Z,34.25
2023-03-06T17:45:49.356Z,33.93
2023-03-06T17:48:34.516Z,34.33
2023-03-06T17:51:19.573Z,33.89
2023-03-06T17:54:04.505Z,33.93
2023-03-06T17:56:49.329Z,33.90
2023-03-06T17:59:34.421Z,34.09
2023-03-06T18:02:19.727Z,34.19
2023-03-06T18:05:04.987Z,34.19
2023-03-06T18:07:50.010Z,33.99
2023-03-06T18:10:35.370Z,34.19
2023-03-06T18:13:20.992Z,33.82
2023-03-06T18:16:06.810Z,33.88
2023-03-06T18:18:52.557Z,34.05
2023-03-06T18:21:38.181Z,34.32
2023-03-06T18:24:23.395Z,33.86
2023-03-06T18:27:08.245Z,34.06
2023-03-06T18:29:55.456Z,34.40
2023-03-06T18:32:40.691Z,33.97
2023-03-06T18:35:25.766Z,33.91
2023-03-06T18:38:11.142Z,34.03
2023-03-06T18:40:56.024Z,33.84
2023-03-06T18:43:40.840Z,34.03
2023-03-06T18:46:26.478Z,34.25
2023-03-06T18:49:12.323Z,34.26
2023-03-06T18:51:57.119Z,34.28
2023-03-06T18:54:42.108Z,34.22
2023-03-06T18:57:29.287Z,34.36
2023-03-06T19:00:15.344Z,34.11
2023-03-06T19:03:00.472Z,34.47
2023-03-06T19:05:46.044Z,34.15
2023-03-06T19:08:31.303Z,34.28
2023-03-06T19:11:16.802Z,34.32
2023-03-06T19:14:01.810Z,34.10
2023-03-06T19:16:47.175Z,34.19
2023-03-06T19:19:32.240Z,34.44
2023-03-06T19:22:17.663Z,34.22
2023-03-06T19:25:03.882Z,34.29
2023-03-06T19:27:49.013Z,34.51
2023-03-06T19:30:34.367Z,34.39
2023-03-06T19:33:19.700Z,34.52
2023-03-06T19:36:05.768Z,34.15
2023-03-06T19:38:52.933Z,33.97
2023-03-06T19:41:37.836Z,34.04
2023-03-06T19:44:23.366Z,34.30
2023-03-06T19:47:08.467Z,33.91
2023-03-06T19:49:53.420Z,33.88
2023-03-06T19:52:39.015Z,33.76
2023-03-06T19:55:28.584Z,34.20
2023-03-06T19:58:13.618Z,33.88
2023-03-06T20:01:09.124Z,34.12
2023-03-06T20:03:58.407Z,34.26
2023-03-06T20:06:46.551Z,33.82
2023-03-06T20:09:35.004Z,33.76
2023-03-06T20:12:20.168Z,34.35
2023-03-06T20:15:05.090Z,34.22
2023-03-06T20:17:50.000Z,33.88
2023-03-06T20:20:37.696Z,33.75
2023-03-06T20:23:22.659Z,34.29
2023-03-06T20:26:11.915Z,34.27
2023-03-06T20:28:57.510Z,33.75
2023-03-06T20:31:43.906Z,34.26
2023-03-06T20:34:29.184Z,34.26
2023-03-06T20:37:14.308Z,34.22
2023-03-06T20:39:59.056Z,33.88
2023-03-06T20:42:44.285Z,34.25
2023-03-06T20:45:29.451Z,34.28
2023-03-06T20:48:14.357Z,33.96
2023-03-06T20:51:03.075Z,34.42
2023-03-06T20:53:48.054Z,33.86
2023-03-06T20:56:33.833Z,34.41
2023-03-06T20:59:19.140Z,33.98
2023-03-06T21:02:04.713Z,34.34
2023-03-06T21:04:49.939Z,34.17
2023-03-06T21:07:35.903Z,34.50
2023-03-06T21:10:21.134Z,34.12
2023-03-06T21:13:06.238Z,34.48
2023-03-06T21:15:51.039Z,34.09
2023-03-06T21:18:35.983Z,34.20
2023-03-06T21:21:22.388Z,34.00
2023-03-06T21:24:07.505Z,34.56
2023-03-06T21:26:52.675Z,34.32
2023-03-06T21:29:37.600Z,34.63
2023-03-06T21:32:23.164Z,34.51
2023-03-06T21:35:08.333Z,34.51
2023-03-06T21:37:53.363Z,34.26
2023-03-06T21:40:38.266Z,34.65
2023-03-06T21:43:23.411Z,34.61
2023-03-06T21:46:08.675Z,34.49
2023-03-06T21:48:53.881Z,34.73
2023-03-06T21:51:38.687Z,34.15
2023-03-06T21:54:23.646Z,34.60
2023-03-06T21:57:08.536Z,34.44
2023-03-06T21:59:53.572Z,34.48
2023-03-06T22:02:38.558Z,34.22
2023-03-06T22:05:24.171Z,34.55
2023-03-06T22:08:11.058Z,34.41
2023-03-06T22:10:56.283Z,34.48
2023-03-06T22:13:41.461Z,34.01
2023-03-06T22:16:26.919Z,34.06
2023-03-06T22:19:12.199Z,34.42
2023-03-06T22:21:57.379Z,33.99
2023-03-06T22:24:42.323Z,33.94
2023-03-06T22:27:28.707Z,34.29
2023-03-06T22:30:14.071Z,34.41
2023-03-06T22:32:58.978Z,34.36
2023-03-06T22:35:44.455Z,34.17
2023-03-06T22:38:29.752Z,34.24
2023-03-06T22:41:15.565Z,33.81
2023-03-06T22:44:01.295Z,34.01
2023-03-06T22:46:46.226Z,33.97
2023-03-06T22:49:30.957Z,33.91
2023-03-06T22:52:18.866Z,34.17
2023-03-06T22:55:04.428Z,34.23
2023-03-06T22:57:49.499Z,34.22
2023-03-06T23:00:34.370Z,33.79
2023-03-06T23:03:19.561Z,34.05
2023-03-06T23:06:05.770Z,33.90
2023-03-06T23:08:55.379Z,34.03
2023-03-06T23:11:40.619Z,34.02
2023-03-06T23:14:49.348Z,33.86
2023-03-06T23:17:53.590Z,33.72
2023-03-06T23:20:58.810Z,33.60
2023-03-06T23:24:02.750Z,33.78
2023-03-06T23:26:47.556Z,33.81
2023-03-06T23:29:32.368Z,33.58
2023-03-06T23:32:17.357Z,33.45
2023-03-06T23:35:02.646Z,33.42
2023-03-06T23:37:47.728Z,33.54
2023-03-06T23:40:33.174Z,33.61
2023-03-06T23:43:18.097Z,33.61
2023-03-06T23:46:03.663Z,33.66
2023-03-06T23:48:48.785Z,33.38
2023-03-06T23:51:34.057Z,33.56
2023-03-06T23:54:19.394Z,33.30
2023-03-06T23:57:04.249Z,33.38
2023-03-06T23:59:49.435Z,33.50
